sensor_id;sensor_type;location;lat;lon;timestamp;P1;durP1;ratioP1;P2;durP2;ratioP2
59016;SDS011;44800;55.600;38.134;2022-07-24T00:00:05;33.78;;;26.33;;
59016;SDS011;44800;55.600;38.134;2022-07-24T00:02:35;39.80;;;26.77;;
59016;SDS011;44800;55.600;38.134;2022-07-24T00:05:04;46.55;;;27.85;;
59016;SDS011;44800;55.600;38.134;2022-07-24T00:07:35;35.10;;;26.77;;
59016;SDS011;44800;55.600;38.134;2022-07-24T00:10:04;41.47;;;26.27;;
59016;SDS011;44800;55.600;38.134;2022-07-24T00:12:33;37.78;;;26.33;;
59016;SDS011;44800;55.600;38.134;2022-07-24T00:15:02;40.45;;;27.02;;
59016;SDS011;44800;55.600;38.134;2022-07-24T00:17:31;41.38;;;27.48;;
59016;SDS011;44800;55.600;38.134;2022-07-24T00:19:59;41.92;;;28.60;;
59016;SDS011;44800;55.600;38.134;2022-07-24T00:22:28;36.78;;;26.02;;
59016;SDS011;44800;55.600;38.134;2022-07-24T00:24:58;39.92;;;27.10;;
59016;SDS011;44800;55.600;38.134;2022-07-24T00:27:26;42.17;;;27.30;;
59016;SDS011;44800;55.600;38.134;2022-07-24T00:29:54;37.47;;;27.50;;
59016;SDS011;44800;55.600;38.134;2022-07-24T00:32:23;38.20;;;26.90;;
59016;SDS011;44800;55.600;38.134;2022-07-24T00:34:51;41.67;;;28.73;;
59016;SDS011;44800;55.600;38.134;2022-07-24T00:37:19;43.33;;;30.02;;
59016;SDS011;44800;55.600;38.134;2022-07-24T00:39:48;40.30;;;26.85;;
59016;SDS011;44800;55.600;38.134;2022-07-24T00:42:17;41.88;;;28.48;;
59016;SDS011;44800;55.600;38.134;2022-07-24T00:44:45;41.70;;;28.65;;
59016;SDS011;44800;55.600;38.134;2022-07-24T00:47:15;46.67;;;30.08;;
59016;SDS011;44800;55.600;38.134;2022-07-24T00:49:44;42.67;;;29.90;;
59016;SDS011;44800;55.600;38.134;2022-07-24T00:52:13;44.63;;;29.15;;
59016;SDS011;44800;55.600;38.134;2022-07-24T00:54:41;46.40;;;29.35;;
59016;SDS011;44800;55.600;38.134;2022-07-24T00:57:09;45.83;;;29.63;;
59016;SDS011;44800;55.600;38.134;2022-07-24T00:59:39;44.92;;;31.02;;
59016;SDS011;44800;55.600;38.134;2022-07-24T01:02:07;43.95;;;30.35;;
59016;SDS011;44800;55.600;38.134;2022-07-24T01:04:35;44.00;;;29.65;;
59016;SDS011;44800;55.600;38.134;2022-07-24T01:07:04;44.05;;;29.45;;
59016;SDS011;44800;55.600;38.134;2022-07-24T01:09:33;43.50;;;30.05;;
59016;SDS011;44800;55.600;38.134;2022-07-24T01:12:03;43.00;;;30.00;;
59016;SDS011;44800;55.600;38.134;2022-07-24T01:14:32;43.67;;;30.17;;
59016;SDS011;44800;55.600;38.134;2022-07-24T01:17:02;45.13;;;30.10;;
59016;SDS011;44800;55.600;38.134;2022-07-24T01:19:30;45.47;;;30.33;;
59016;SDS011;44800;55.600;38.134;2022-07-24T01:22:00;41.22;;;29.48;;
59016;SDS011;44800;55.600;38.134;2022-07-24T01:24:30;43.95;;;31.27;;
59016;SDS011;44800;55.600;38.134;2022-07-24T01:26:58;48.05;;;31.90;;
59016;SDS011;44800;55.600;38.134;2022-07-24T01:29:27;47.80;;;31.13;;
59016;SDS011;44800;55.600;38.134;2022-07-24T01:31:55;44.28;;;29.02;;
59016;SDS011;44800;55.600;38.134;2022-07-24T01:34:25;39.53;;;29.48;;
59016;SDS011;44800;55.600;38.134;2022-07-24T01:36:53;42.03;;;29.90;;
59016;SDS011;44800;55.600;38.134;2022-07-24T01:39:31;45.55;;;30.02;;
59016;SDS011;44800;55.600;38.134;2022-07-24T01:42:00;46.25;;;29.55;;
59016;SDS011;44800;55.600;38.134;2022-07-24T01:44:28;43.00;;;29.67;;
59016;SDS011;44800;55.600;38.134;2022-07-24T01:46:56;41.10;;;29.08;;
59016;SDS011;44800;55.600;38.134;2022-07-24T01:49:25;48.17;;;30.65;;
59016;SDS011;44800;55.600;38.134;2022-07-24T01:51:53;47.20;;;29.92;;
59016;SDS011;44800;55.600;38.134;2022-07-24T01:54:21;43.15;;;30.17;;
59016;SDS011;44800;55.600;38.134;2022-07-24T01:56:51;42.13;;;29.40;;
59016;SDS011;44800;55.600;38.134;2022-07-24T01:59:19;42.78;;;29.48;;
59016;SDS011;44800;55.600;38.134;2022-07-24T02:01:51;48.55;;;31.63;;
59016;SDS011;44800;55.600;38.134;2022-07-24T02:04:20;44.80;;;29.88;;
59016;SDS011;44800;55.600;38.134;2022-07-24T02:06:48;45.50;;;31.98;;
59016;SDS011;44800;55.600;38.134;2022-07-24T02:09:16;40.88;;;29.45;;
59016;SDS011;44800;55.600;38.134;2022-07-24T02:11:45;42.65;;;30.17;;
59016;SDS011;44800;55.600;38.134;2022-07-24T02:14:14;44.88;;;30.77;;
59016;SDS011;44800;55.600;38.134;2022-07-24T02:16:43;47.85;;;32.35;;
59016;SDS011;44800;55.600;38.134;2022-07-24T02:19:11;47.25;;;30.17;;
59016;SDS011;44800;55.600;38.134;2022-07-24T02:21:39;44.55;;;30.25;;
59016;SDS011;44800;55.600;38.134;2022-07-24T02:24:08;46.28;;;30.17;;
59016;SDS011;44800;55.600;38.134;2022-07-24T02:26:36;42.63;;;31.10;;
59016;SDS011;44800;55.600;38.134;2022-07-24T02:29:04;44.40;;;32.22;;
59016;SDS011;44800;55.600;38.134;2022-07-24T02:31:35;46.70;;;30.33;;
59016;SDS011;44800;55.600;38.134;2022-07-24T02:34:03;42.25;;;28.23;;
59016;SDS011;44800;55.600;38.134;2022-07-24T02:36:31;43.95;;;31.98;;
59016;SDS011;44800;55.600;38.134;2022-07-24T02:39:00;44.75;;;29.27;;
59016;SDS011;44800;55.600;38.134;2022-07-24T02:41:29;44.40;;;30.05;;
59016;SDS011;44800;55.600;38.134;2022-07-24T02:43:57;43.72;;;30.25;;
59016;SDS011;44800;55.600;38.134;2022-07-24T02:46:25;37.80;;;28.23;;
59016;SDS011;44800;55.600;38.134;2022-07-24T02:48:55;46.13;;;31.15;;
59016;SDS011;44800;55.600;38.134;2022-07-24T02:51:23;42.60;;;30.30;;
59016;SDS011;44800;55.600;38.134;2022-07-24T02:53:51;44.80;;;28.90;;
59016;SDS011;44800;55.600;38.134;2022-07-24T02:56:20;44.25;;;30.23;;
59016;SDS011;44800;55.600;38.134;2022-07-24T02:58:48;41.30;;;28.48;;
59016;SDS011;44800;55.600;38.134;2022-07-24T03:01:19;43.30;;;29.60;;
59016;SDS011;44800;55.600;38.134;2022-07-24T03:03:47;44.03;;;29.23;;
59016;SDS011;44800;55.600;38.134;2022-07-24T03:06:17;41.35;;;29.83;;
59016;SDS011;44800;55.600;38.134;2022-07-24T03:08:49;41.72;;;29.77;;
59016;SDS011;44800;55.600;38.134;2022-07-24T03:11:17;44.72;;;29.90;;
59016;SDS011;44800;55.600;38.134;2022-07-24T03:13:48;44.67;;;29.85;;
59016;SDS011;44800;55.600;38.134;2022-07-24T03:16:17;48.45;;;30.90;;
59016;SDS011;44800;55.600;38.134;2022-07-24T03:18:45;42.30;;;29.33;;
59016;SDS011;44800;55.600;38.134;2022-07-24T03:21:17;44.75;;;28.88;;
59016;SDS011;44800;55.600;38.134;2022-07-24T03:24:06;45.90;;;29.23;;
59016;SDS011;44800;55.600;38.134;2022-07-24T03:26:34;47.78;;;30.20;;
59016;SDS011;44800;55.600;38.134;2022-07-24T03:29:02;43.28;;;29.13;;
59016;SDS011;44800;55.600;38.134;2022-07-24T03:31:32;46.80;;;29.90;;
59016;SDS011;44800;55.600;38.134;2022-07-24T03:34:00;46.40;;;30.55;;
59016;SDS011;44800;55.600;38.134;2022-07-24T03:36:30;44.53;;;30.25;;
59016;SDS011;44800;55.600;38.134;2022-07-24T03:38:58;46.78;;;29.27;;
59016;SDS011;44800;55.600;38.134;2022-07-24T03:41:27;47.42;;;29.65;;
59016;SDS011;44800;55.600;38.134;2022-07-24T03:43:56;41.95;;;27.90;;
59016;SDS011;44800;55.600;38.134;2022-07-24T03:46:24;41.10;;;28.88;;
59016;SDS011;44800;55.600;38.134;2022-07-24T03:48:54;40.70;;;29.55;;
59016;SDS011;44800;55.600;38.134;2022-07-24T03:51:23;42.40;;;26.80;;
59016;SDS011;44800;55.600;38.134;2022-07-24T03:53:53;43.50;;;28.25;;
59016;SDS011;44800;55.600;38.134;2022-07-24T03:56:22;47.65;;;30.73;;
59016;SDS011;44800;55.600;38.134;2022-07-24T03:58:51;41.90;;;27.52;;
59016;SDS011;44800;55.600;38.134;2022-07-24T04:01:20;39.67;;;29.10;;
59016;SDS011;44800;55.600;38.134;2022-07-24T04:03:48;40.83;;;28.08;;
59016;SDS011;44800;55.600;38.134;2022-07-24T04:06:17;40.97;;;28.45;;
59016;SDS011;44800;55.600;38.134;2022-07-24T04:08:45;44.70;;;30.17;;
59016;SDS011;44800;55.600;38.134;2022-07-24T04:11:15;42.50;;;29.20;;
59016;SDS011;44800;55.600;38.134;2022-07-24T04:13:43;44.95;;;30.33;;
59016;SDS011;44800;55.600;38.134;2022-07-24T04:16:11;46.13;;;28.67;;
59016;SDS011;44800;55.600;38.134;2022-07-24T04:18:40;43.92;;;29.60;;
59016;SDS011;44800;55.600;38.134;2022-07-24T04:21:08;43.20;;;27.38;;
59016;SDS011;44800;55.600;38.134;2022-07-24T04:23:37;40.38;;;28.48;;
59016;SDS011;44800;55.600;38.134;2022-07-24T04:26:05;43.42;;;28.85;;
59016;SDS011;44800;55.600;38.134;2022-07-24T04:28:35;47.80;;;30.27;;
59016;SDS011;44800;55.600;38.134;2022-07-24T04:31:03;53.78;;;31.60;;
59016;SDS011;44800;55.600;38.134;2022-07-24T04:33:32;48.17;;;31.33;;
59016;SDS011;44800;55.600;38.134;2022-07-24T04:36:00;42.85;;;29.85;;
59016;SDS011;44800;55.600;38.134;2022-07-24T04:38:29;37.95;;;25.95;;
59016;SDS011;44800;55.600;38.134;2022-07-24T04:40:57;38.08;;;26.67;;
59016;SDS011;44800;55.600;38.134;2022-07-24T04:43:25;35.08;;;25.05;;
59016;SDS011;44800;55.600;38.134;2022-07-24T04:45:55;38.22;;;23.83;;
59016;SDS011;44800;55.600;38.134;2022-07-24T04:48:23;37.38;;;23.38;;
59016;SDS011;44800;55.600;38.134;2022-07-24T04:50:52;30.85;;;20.88;;
59016;SDS011;44800;55.600;38.134;2022-07-24T04:53:21;29.23;;;17.80;;
59016;SDS011;44800;55.600;38.134;2022-07-24T04:55:49;25.98;;;19.65;;
59016;SDS011;44800;55.600;38.134;2022-07-24T04:58:18;26.70;;;17.15;;
59016;SDS011;44800;55.600;38.134;2022-07-24T05:00:46;20.17;;;16.98;;
59016;SDS011;44800;55.600;38.134;2022-07-24T05:03:16;25.02;;;18.05;;
59016;SDS011;44800;55.600;38.134;2022-07-24T05:05:45;28.30;;;17.88;;
59016;SDS011;44800;55.600;38.134;2022-07-24T05:08:13;23.63;;;17.83;;
59016;SDS011;44800;55.600;38.134;2022-07-24T05:10:42;20.23;;;16.02;;
59016;SDS011;44800;55.600;38.134;2022-07-24T05:13:10;20.63;;;15.93;;
59016;SDS011;44800;55.600;38.134;2022-07-24T05:15:38;21.85;;;16.02;;
59016;SDS011;44800;55.600;38.134;2022-07-24T05:18:07;20.15;;;14.88;;
59016;SDS011;44800;55.600;38.134;2022-07-24T05:20:36;16.42;;;14.43;;
59016;SDS011;44800;55.600;38.134;2022-07-24T05:23:05;20.73;;;15.57;;
59016;SDS011;44800;55.600;38.134;2022-07-24T05:25:33;23.20;;;15.63;;
59016;SDS011;44800;55.600;38.134;2022-07-24T05:28:01;17.92;;;15.45;;
59016;SDS011;44800;55.600;38.134;2022-07-24T05:30:30;17.08;;;14.93;;
59016;SDS011;44800;55.600;38.134;2022-07-24T05:32:58;17.55;;;14.60;;
59016;SDS011;44800;55.600;38.134;2022-07-24T05:35:26;18.95;;;15.02;;
59016;SDS011;44800;55.600;38.134;2022-07-24T05:37:56;19.80;;;14.98;;
59016;SDS011;44800;55.600;38.134;2022-07-24T05:40:25;25.17;;;15.70;;
59016;SDS011;44800;55.600;38.134;2022-07-24T05:42:55;21.42;;;15.32;;
59016;SDS011;44800;55.600;38.134;2022-07-24T05:45:23;19.02;;;15.27;;
59016;SDS011;44800;55.600;38.134;2022-07-24T05:47:53;21.25;;;15.43;;
59016;SDS011;44800;55.600;38.134;2022-07-24T05:50:21;17.15;;;14.57;;
59016;SDS011;44800;55.600;38.134;2022-07-24T05:52:49;22.05;;;14.95;;
59016;SDS011;44800;55.600;38.134;2022-07-24T05:55:22;21.40;;;15.23;;
59016;SDS011;44800;55.600;38.134;2022-07-24T05:57:50;16.77;;;14.95;;
59016;SDS011;44800;55.600;38.134;2022-07-24T06:00:20;18.27;;;14.02;;
59016;SDS011;44800;55.600;38.134;2022-07-24T06:02:49;15.75;;;13.88;;
59016;SDS011;44800;55.600;38.134;2022-07-24T06:05:21;17.70;;;13.88;;
59016;SDS011;44800;55.600;38.134;2022-07-24T06:07:51;26.02;;;14.15;;
59016;SDS011;44800;55.600;38.134;2022-07-24T06:10:19;15.73;;;12.65;;
59016;SDS011;44800;55.600;38.134;2022-07-24T06:12:53;8.07;;;7.27;;
59016;SDS011;44800;55.600;38.134;2022-07-24T06:15:21;7.65;;;6.47;;
59016;SDS011;44800;55.600;38.134;2022-07-24T06:17:51;10.05;;;7.25;;
59016;SDS011;44800;55.600;38.134;2022-07-24T06:20:19;9.45;;;8.52;;
59016;SDS011;44800;55.600;38.134;2022-07-24T06:22:50;14.15;;;11.68;;
59016;SDS011;44800;55.600;38.134;2022-07-24T06:25:18;13.38;;;11.68;;
59016;SDS011;44800;55.600;38.134;2022-07-24T06:27:47;11.55;;;10.35;;
59016;SDS011;44800;55.600;38.134;2022-07-24T06:30:18;11.32;;;9.70;;
59016;SDS011;44800;55.600;38.134;2022-07-24T06:32:48;12.60;;;11.30;;
59016;SDS011;44800;55.600;38.134;2022-07-24T06:35:17;13.52;;;11.05;;
59016;SDS011;44800;55.600;38.134;2022-07-24T06:37:45;15.60;;;11.32;;
59016;SDS011;44800;55.600;38.134;2022-07-24T06:40:14;12.45;;;11.23;;
59016;SDS011;44800;55.600;38.134;2022-07-24T06:42:43;14.88;;;12.75;;
59016;SDS011;44800;55.600;38.134;2022-07-24T06:45:11;16.30;;;13.75;;
59016;SDS011;44800;55.600;38.134;2022-07-24T06:47:42;23.13;;;13.70;;
59016;SDS011;44800;55.600;38.134;2022-07-24T06:50:11;19.45;;;14.45;;
59016;SDS011;44800;55.600;38.134;2022-07-24T06:52:40;16.30;;;13.60;;
59016;SDS011;44800;55.600;38.134;2022-07-24T06:55:09;17.55;;;13.60;;
59016;SDS011;44800;55.600;38.134;2022-07-24T06:57:37;17.63;;;14.13;;
59016;SDS011;44800;55.600;38.134;2022-07-24T07:00:06;14.95;;;12.18;;
59016;SDS011;44800;55.600;38.134;2022-07-24T07:02:37;12.43;;;11.13;;
59016;SDS011;44800;55.600;38.134;2022-07-24T07:05:07;15.38;;;11.27;;
59016;SDS011;44800;55.600;38.134;2022-07-24T07:07:36;15.40;;;11.00;;
59016;SDS011;44800;55.600;38.134;2022-07-24T07:10:05;12.32;;;9.75;;
59016;SDS011;44800;55.600;38.134;2022-07-24T07:12:41;10.70;;;9.40;;
59016;SDS011;44800;55.600;38.134;2022-07-24T07:15:10;13.80;;;9.32;;
59016;SDS011;44800;55.600;38.134;2022-07-24T07:17:41;13.00;;;10.50;;
59016;SDS011;44800;55.600;38.134;2022-07-24T07:20:11;19.48;;;9.80;;
59016;SDS011;44800;55.600;38.134;2022-07-24T07:22:40;16.02;;;9.95;;
59016;SDS011;44800;55.600;38.134;2022-07-24T07:25:12;11.23;;;9.38;;
59016;SDS011;44800;55.600;38.134;2022-07-24T07:27:42;10.00;;;8.63;;
59016;SDS011;44800;55.600;38.134;2022-07-24T07:30:11;8.80;;;7.80;;
59016;SDS011;44800;55.600;38.134;2022-07-24T07:32:39;7.75;;;7.05;;
59016;SDS011;44800;55.600;38.134;2022-07-24T07:35:08;8.70;;;7.20;;
59016;SDS011;44800;55.600;38.134;2022-07-24T07:37:48;7.38;;;6.65;;
59016;SDS011;44800;55.600;38.134;2022-07-24T07:40:17;8.60;;;7.22;;
59016;SDS011;44800;55.600;38.134;2022-07-24T07:42:45;8.10;;;7.43;;
59016;SDS011;44800;55.600;38.134;2022-07-24T07:45:13;7.78;;;7.07;;
59016;SDS011;44800;55.600;38.134;2022-07-24T07:47:42;10.02;;;7.75;;
59016;SDS011;44800;55.600;38.134;2022-07-24T07:50:18;7.25;;;6.55;;
59016;SDS011;44800;55.600;38.134;2022-07-24T07:52:46;8.38;;;7.43;;
59016;SDS011;44800;55.600;38.134;2022-07-24T07:55:16;7.63;;;6.47;;
59016;SDS011;44800;55.600;38.134;2022-07-24T07:57:44;13.48;;;7.60;;
59016;SDS011;44800;55.600;38.134;2022-07-24T08:00:31;10.35;;;8.25;;
59016;SDS011;44800;55.600;38.134;2022-07-24T08:02:59;9.50;;;8.10;;
59016;SDS011;44800;55.600;38.134;2022-07-24T08:05:27;10.35;;;7.95;;
59016;SDS011;44800;55.600;38.134;2022-07-24T08:07:56;11.35;;;7.97;;
59016;SDS011;44800;55.600;38.134;2022-07-24T08:10:25;9.07;;;8.10;;
59016;SDS011;44800;55.600;38.134;2022-07-24T08:12:54;11.63;;;8.43;;
59016;SDS011;44800;55.600;38.134;2022-07-24T08:15:22;10.85;;;8.80;;
59016;SDS011;44800;55.600;38.134;2022-07-24T08:17:51;12.45;;;8.90;;
59016;SDS011;44800;55.600;38.134;2022-07-24T08:20:20;9.60;;;8.63;;
59016;SDS011;44800;55.600;38.134;2022-07-24T08:22:49;9.65;;;8.63;;
59016;SDS011;44800;55.600;38.134;2022-07-24T08:25:17;9.38;;;8.00;;
59016;SDS011;44800;55.600;38.134;2022-07-24T08:27:47;9.98;;;8.35;;
59016;SDS011;44800;55.600;38.134;2022-07-24T08:30:16;7.82;;;7.13;;
59016;SDS011;44800;55.600;38.134;2022-07-24T08:32:44;9.73;;;7.85;;
59016;SDS011;44800;55.600;38.134;2022-07-24T08:35:13;8.30;;;7.32;;
59016;SDS011;44800;55.600;38.134;2022-07-24T08:37:42;10.38;;;7.65;;
59016;SDS011;44800;55.600;38.134;2022-07-24T08:40:11;8.70;;;7.82;;
59016;SDS011;44800;55.600;38.134;2022-07-24T08:42:40;8.30;;;7.50;;
59016;SDS011;44800;55.600;38.134;2022-07-24T08:45:10;11.02;;;7.35;;
59016;SDS011;44800;55.600;38.134;2022-07-24T08:47:39;9.43;;;7.80;;
59016;SDS011;44800;55.600;38.134;2022-07-24T08:50:08;9.80;;;8.80;;
59016;SDS011;44800;55.600;38.134;2022-07-24T08:52:37;8.35;;;7.55;;
59016;SDS011;44800;55.600;38.134;2022-07-24T08:55:12;8.30;;;7.50;;
59016;SDS011;44800;55.600;38.134;2022-07-24T08:57:41;9.60;;;8.63;;
59016;SDS011;44800;55.600;38.134;2022-07-24T09:00:11;8.05;;;7.28;;
59016;SDS011;44800;55.600;38.134;2022-07-24T09:02:41;9.32;;;7.55;;
59016;SDS011;44800;55.600;38.134;2022-07-24T09:05:13;10.18;;;7.93;;
59016;SDS011;44800;55.600;38.134;2022-07-24T09:07:41;7.57;;;6.93;;
59016;SDS011;44800;55.600;38.134;2022-07-24T09:10:10;8.27;;;6.70;;
59016;SDS011;44800;55.600;38.134;2022-07-24T09:12:39;8.30;;;7.10;;
59016;SDS011;44800;55.600;38.134;2022-07-24T09:15:14;7.00;;;6.30;;
59016;SDS011;44800;55.600;38.134;2022-07-24T09:17:49;7.40;;;6.40;;
59016;SDS011;44800;55.600;38.134;2022-07-24T09:20:19;7.15;;;6.53;;
59016;SDS011;44800;55.600;38.134;2022-07-24T09:22:48;6.55;;;6.05;;
59016;SDS011;44800;55.600;38.134;2022-07-24T09:25:17;7.43;;;6.68;;
59016;SDS011;44800;55.600;38.134;2022-07-24T09:27:48;8.13;;;6.72;;
59016;SDS011;44800;55.600;38.134;2022-07-24T09:30:23;7.55;;;6.82;;
59016;SDS011;44800;55.600;38.134;2022-07-24T09:32:53;6.63;;;6.03;;
59016;SDS011;44800;55.600;38.134;2022-07-24T09:35:23;8.02;;;7.05;;
59016;SDS011;44800;55.600;38.134;2022-07-24T09:37:57;6.30;;;5.70;;
59016;SDS011;44800;55.600;38.134;2022-07-24T09:40:30;7.45;;;6.38;;
59016;SDS011;44800;55.600;38.134;2022-07-24T09:43:16;7.20;;;6.22;;
59016;SDS011;44800;55.600;38.134;2022-07-24T09:45:54;7.05;;;6.45;;
59016;SDS011;44800;55.600;38.134;2022-07-24T09:48:28;6.57;;;5.80;;
59016;SDS011;44800;55.600;38.134;2022-07-24T09:50:58;7.32;;;6.40;;
59016;SDS011;44800;55.600;38.134;2022-07-24T09:53:29;8.73;;;6.75;;
59016;SDS011;44800;55.600;38.134;2022-07-24T09:58:31;6.43;;;5.82;;
59016;SDS011;44800;55.600;38.134;2022-07-24T10:01:03;11.00;;;6.70;;
59016;SDS011;44800;55.600;38.134;2022-07-24T10:03:33;6.43;;;5.93;;
59016;SDS011;44800;55.600;38.134;2022-07-24T10:06:03;6.90;;;5.70;;
59016;SDS011;44800;55.600;38.134;2022-07-24T10:08:34;8.13;;;6.80;;
59016;SDS011;44800;55.600;38.134;2022-07-24T10:11:04;6.63;;;6.03;;
59016;SDS011;44800;55.600;38.134;2022-07-24T10:13:33;8.48;;;6.60;;
59016;SDS011;44800;55.600;38.134;2022-07-24T10:19:04;8.40;;;7.53;;
59016;SDS011;44800;55.600;38.134;2022-07-24T10:21:35;7.55;;;6.32;;
59016;SDS011;44800;55.600;38.134;2022-07-24T10:24:11;9.30;;;6.57;;
59016;SDS011;44800;55.600;38.134;2022-07-24T10:26:54;9.13;;;6.70;;
59016;SDS011;44800;55.600;38.134;2022-07-24T10:29:31;5.65;;;5.15;;
59016;SDS011;44800;55.600;38.134;2022-07-24T10:32:02;6.85;;;6.03;;
59016;SDS011;44800;55.600;38.134;2022-07-24T10:34:32;7.47;;;6.65;;
59016;SDS011;44800;55.600;38.134;2022-07-24T10:37:11;8.55;;;6.45;;
59016;SDS011;44800;55.600;38.134;2022-07-24T10:39:47;6.85;;;6.25;;
59016;SDS011;44800;55.600;38.134;2022-07-24T10:42:22;5.90;;;5.47;;
59016;SDS011;44800;55.600;38.134;2022-07-24T10:47:43;5.82;;;5.43;;
59016;SDS011;44800;55.600;38.134;2022-07-24T10:50:11;7.40;;;6.10;;
59016;SDS011;44800;55.600;38.134;2022-07-24T10:52:41;8.07;;;5.40;;
59016;SDS011;44800;55.600;38.134;2022-07-24T10:55:29;5.88;;;5.47;;
59016;SDS011;44800;55.600;38.134;2022-07-24T10:58:02;6.32;;;5.38;;
59016;SDS011;44800;55.600;38.134;2022-07-24T11:00:33;6.07;;;5.47;;
59016;SDS011;44800;55.600;38.134;2022-07-24T11:03:09;5.35;;;4.85;;
59016;SDS011;44800;55.600;38.134;2022-07-24T11:08:30;6.55;;;6.00;;
59016;SDS011;44800;55.600;38.134;2022-07-24T11:11:10;7.22;;;5.50;;
59016;SDS011;44800;55.600;38.134;2022-07-24T11:16:30;6.13;;;5.57;;
59016;SDS011;44800;55.600;38.134;2022-07-24T11:22:05;6.72;;;6.13;;
59016;SDS011;44800;55.600;38.134;2022-07-24T11:24:35;7.13;;;5.82;;
59016;SDS011;44800;55.600;38.134;2022-07-24T11:27:07;6.63;;;6.13;;
59016;SDS011;44800;55.600;38.134;2022-07-24T11:29:42;9.52;;;6.10;;
59016;SDS011;44800;55.600;38.134;2022-07-24T11:32:11;6.13;;;5.55;;
59016;SDS011;44800;55.600;38.134;2022-07-24T11:34:46;9.10;;;5.75;;
59016;SDS011;44800;55.600;38.134;2022-07-24T11:37:16;7.97;;;5.60;;
59016;SDS011;44800;55.600;38.134;2022-07-24T11:39:45;6.18;;;5.57;;
59016;SDS011;44800;55.600;38.134;2022-07-24T11:42:16;5.38;;;4.80;;
59016;SDS011;44800;55.600;38.134;2022-07-24T11:44:45;5.72;;;5.13;;
59016;SDS011;44800;55.600;38.134;2022-07-24T11:47:16;6.57;;;5.65;;
59016;SDS011;44800;55.600;38.134;2022-07-24T11:49:47;5.95;;;5.35;;
59016;SDS011;44800;55.600;38.134;2022-07-24T11:52:17;5.55;;;5.05;;
59016;SDS011;44800;55.600;38.134;2022-07-24T11:54:47;6.28;;;5.15;;
59016;SDS011;44800;55.600;38.134;2022-07-24T11:57:18;7.25;;;5.63;;
59016;SDS011;44800;55.600;38.134;2022-07-24T12:00:08;5.53;;;5.03;;
59016;SDS011;44800;55.600;38.134;2022-07-24T12:02:42;5.10;;;4.80;;
59016;SDS011;44800;55.600;38.134;2022-07-24T12:07:40;6.20;;;5.18;;
59016;SDS011;44800;55.600;38.134;2022-07-24T12:10:09;6.15;;;5.55;;
59016;SDS011;44800;55.600;38.134;2022-07-24T12:12:38;7.30;;;5.68;;
59016;SDS011;44800;55.600;38.134;2022-07-24T12:15:08;5.32;;;4.82;;
59016;SDS011;44800;55.600;38.134;2022-07-24T12:17:53;5.47;;;5.07;;
59016;SDS011;44800;55.600;38.134;2022-07-24T12:20:25;6.00;;;5.38;;
59016;SDS011;44800;55.600;38.134;2022-07-24T12:22:54;7.10;;;5.85;;
59016;SDS011;44800;55.600;38.134;2022-07-24T12:25:24;6.75;;;5.13;;
59016;SDS011;44800;55.600;38.134;2022-07-24T12:28:01;6.18;;;5.35;;
59016;SDS011;44800;55.600;38.134;2022-07-24T12:30:32;5.07;;;4.57;;
59016;SDS011;44800;55.600;38.134;2022-07-24T12:33:02;5.68;;;5.18;;
59016;SDS011;44800;55.600;38.134;2022-07-24T12:35:33;5.38;;;4.97;;
59016;SDS011;44800;55.600;38.134;2022-07-24T12:38:02;5.70;;;5.20;;
59016;SDS011;44800;55.600;38.134;2022-07-24T12:40:32;6.47;;;5.90;;
59016;SDS011;44800;55.600;38.134;2022-07-24T12:43:03;7.15;;;4.88;;
59016;SDS011;44800;55.600;38.134;2022-07-24T12:45:35;7.50;;;5.00;;
59016;SDS011;44800;55.600;38.134;2022-07-24T12:48:05;6.93;;;5.38;;
59016;SDS011;44800;55.600;38.134;2022-07-24T12:50:39;8.90;;;5.20;;
59016;SDS011;44800;55.600;38.134;2022-07-24T12:53:22;6.25;;;5.68;;
59016;SDS011;44800;55.600;38.134;2022-07-24T12:55:59;6.55;;;6.00;;
59016;SDS011;44800;55.600;38.134;2022-07-24T12:58:29;5.57;;;5.18;;
59016;SDS011;44800;55.600;38.134;2022-07-24T13:00:57;6.65;;;6.05;;
59016;SDS011;44800;55.600;38.134;2022-07-24T13:03:26;6.13;;;5.50;;
59016;SDS011;44800;55.600;38.134;2022-07-24T13:05:56;5.75;;;5.25;;
59016;SDS011;44800;55.600;38.134;2022-07-24T13:08:25;11.43;;;5.55;;
59016;SDS011;44800;55.600;38.134;2022-07-24T13:10:53;7.75;;;5.05;;
59016;SDS011;44800;55.600;38.134;2022-07-24T13:13:22;6.22;;;5.63;;
59016;SDS011;44800;55.600;38.134;2022-07-24T13:15:50;6.40;;;5.80;;
59016;SDS011;44800;55.600;38.134;2022-07-24T13:18:19;6.65;;;6.07;;
59016;SDS011;44800;55.600;38.134;2022-07-24T13:20:47;5.35;;;4.90;;
59016;SDS011;44800;55.600;38.134;2022-07-24T13:23:17;7.80;;;5.93;;
59016;SDS011;44800;55.600;38.134;2022-07-24T13:25:45;7.55;;;6.25;;
59016;SDS011;44800;55.600;38.134;2022-07-24T13:28:14;5.72;;;5.18;;
59016;SDS011;44800;55.600;38.134;2022-07-24T13:30:42;5.40;;;4.90;;
59016;SDS011;44800;55.600;38.134;2022-07-24T13:33:11;5.55;;;5.05;;
59016;SDS011;44800;55.600;38.134;2022-07-24T13:35:40;14.35;;;6.72;;
59016;SDS011;44800;55.600;38.134;2022-07-24T13:38:10;6.33;;;5.83;;
59016;SDS011;44800;55.600;38.134;2022-07-24T13:40:40;5.90;;;5.30;;
59016;SDS011;44800;55.600;38.134;2022-07-24T13:43:08;5.75;;;5.18;;
59016;SDS011;44800;55.600;38.134;2022-07-24T13:45:37;7.47;;;5.95;;
59016;SDS011;44800;55.600;38.134;2022-07-24T13:48:05;7.60;;;7.00;;
59016;SDS011;44800;55.600;38.134;2022-07-24T13:50:33;6.68;;;5.68;;
59016;SDS011;44800;55.600;38.134;2022-07-24T13:53:02;6.03;;;5.43;;
59016;SDS011;44800;55.600;38.134;2022-07-24T13:55:33;7.35;;;6.65;;
59016;SDS011;44800;55.600;38.134;2022-07-24T13:58:03;6.82;;;6.13;;
59016;SDS011;44800;55.600;38.134;2022-07-24T14:00:31;7.53;;;5.72;;
59016;SDS011;44800;55.600;38.134;2022-07-24T14:02:59;6.70;;;6.10;;
59016;SDS011;44800;55.600;38.134;2022-07-24T14:05:48;6.88;;;6.28;;
59016;SDS011;44800;55.600;38.134;2022-07-24T14:08:16;8.35;;;5.85;;
59016;SDS011;44800;55.600;38.134;2022-07-24T14:10:44;16.27;;;13.65;;
59016;SDS011;44800;55.600;38.134;2022-07-24T14:13:14;6.93;;;5.72;;
59016;SDS011;44800;55.600;38.134;2022-07-24T14:15:42;7.32;;;6.20;;
59016;SDS011;44800;55.600;38.134;2022-07-24T14:18:11;6.40;;;5.68;;
59016;SDS011;44800;55.600;38.134;2022-07-24T14:20:39;6.57;;;5.82;;
59016;SDS011;44800;55.600;38.134;2022-07-24T14:23:08;6.53;;;5.78;;
59016;SDS011;44800;55.600;38.134;2022-07-24T14:25:36;7.00;;;6.43;;
59016;SDS011;44800;55.600;38.134;2022-07-24T14:28:04;6.40;;;5.82;;
59016;SDS011;44800;55.600;38.134;2022-07-24T14:30:34;9.73;;;5.68;;
59016;SDS011;44800;55.600;38.134;2022-07-24T14:33:03;9.05;;;5.82;;
59016;SDS011;44800;55.600;38.134;2022-07-24T14:35:31;6.53;;;5.97;;
59016;SDS011;44800;55.600;38.134;2022-07-24T14:37:59;10.18;;;5.85;;
59016;SDS011;44800;55.600;38.134;2022-07-24T14:40:28;7.82;;;5.88;;
59016;SDS011;44800;55.600;38.134;2022-07-24T14:42:56;9.40;;;5.85;;
59016;SDS011;44800;55.600;38.134;2022-07-24T14:45:24;7.60;;;5.65;;
59016;SDS011;44800;55.600;38.134;2022-07-24T14:47:54;6.63;;;5.70;;
59016;SDS011;44800;55.600;38.134;2022-07-24T14:50:22;6.95;;;6.18;;
59016;SDS011;44800;55.600;38.134;2022-07-24T14:52:52;6.13;;;5.63;;
59016;SDS011;44800;55.600;38.134;2022-07-24T14:55:21;9.02;;;6.30;;